createdAt,value
2019-04-26T00:02:12.499Z,9.70
2019-04-26T00:07:31.102Z,9.63
2019-04-26T00:12:51.362Z,9.60
2019-04-26T00:18:11.348Z,9.68
2019-04-26T00:23:30.777Z,9.89
2019-04-26T00:28:49.654Z,9.89
2019-04-26T00:34:08.353Z,9.78
2019-04-26T00:39:26.915Z,9.63
2019-04-26T00:44:45.639Z,9.60
2019-04-26T00:50:06.030Z,9.59
2019-04-26T00:55:24.830Z,9.78
2019-04-26T01:00:43.614Z,9.99
2019-04-26T01:06:03.894Z,10.13
2019-04-26T01:11:22.431Z,10.19
2019-04-26T01:16:41.231Z,10.25
2019-04-26T01:22:02.773Z,10.21
2019-04-26T01:27:25.437Z,10.32
2019-04-26T01:32:45.493Z,10.26
2019-04-26T01:38:07.572Z,10.26
2019-04-26T01:43:30.853Z,10.27
2019-04-26T01:48:55.105Z,10.22
2019-04-26T01:54:16.614Z,10.21
2019-04-26T01:59:38.774Z,10.23
2019-04-26T02:05:05.479Z,10.27
2019-04-26T02:10:26.561Z,10.27
2019-04-26T02:15:45.272Z,10.28
2019-04-26T02:21:08.426Z,10.29
2019-04-26T02:26:40.786Z,10.32
2019-04-26T02:32:02.313Z,10.35
2019-04-26T02:37:20.952Z,10.38
2019-04-26T02:42:42.456Z,10.40
2019-04-26T02:48:17.651Z,10.37
2019-04-26T02:53:41.921Z,10.32
2019-04-26T02:59:05.977Z,10.29
2019-04-26T03:04:26.836Z,10.30
2019-04-26T03:09:46.891Z,10.29
2019-04-26T03:15:13.803Z,10.29
2019-04-26T03:20:36.385Z,10.25
2019-04-26T03:26:19.737Z,10.23
2019-04-26T03:31:58.035Z,10.18
2019-04-26T03:37:42.630Z,10.15
2019-04-26T03:43:23.819Z,10.05
2019-04-26T03:49:18.931Z,9.93
2019-04-26T03:54:40.987Z,9.84
2019-04-26T04:00:04.258Z,9.68
2019-04-26T04:05:37.895Z,9.58
2019-04-26T04:10:59.536Z,9.52
2019-04-26T04:16:42.787Z,9.51
2019-04-26T04:22:19.132Z,9.48
2019-04-26T04:27:47.901Z,9.43
2019-04-26T04:33:27.688Z,9.36
2019-04-26T04:39:11.191Z,9.36
2019-04-26T04:44:32.144Z,9.35
2019-04-26T04:50:09.387Z,9.33
2019-04-26T04:55:39.646Z,9.22
2019-04-26T05:01:39.245Z,9.27
2019-04-26T05:07:13.746Z,9.26
2019-04-26T05:12:59.501Z,9.25
2019-04-26T05:18:56.308Z,9.25
2019-04-26T05:24:34.311Z,9.20
2019-04-26T05:30:05.574Z,9.23
2019-04-26T05:35:37.679Z,9.29
2019-04-26T05:41:08.135Z,9.25
2019-04-26T05:47:08.004Z,9.22
2019-04-26T05:52:58.028Z,9.22
2019-04-26T05:58:25.378Z,9.26
2019-04-26T06:04:23.275Z,9.29
2019-04-26T06:10:13.648Z,9.34
2019-04-26T06:15:39.908Z,9.44
2019-04-26T06:21:13.755Z,9.59
2019-04-26T06:26:39.848Z,9.84
2019-04-26T06:32:18.915Z,10.10
2019-04-26T06:38:03.986Z,10.22
2019-04-26T06:43:30.127Z,10.19
2019-04-26T06:49:05.467Z,10.09
2019-04-26T06:54:30.462Z,10.07
2019-04-26T06:59:54.730Z,10.06
2019-04-26T07:05:22.091Z,9.97
2019-04-26T07:10:46.508Z,10.00
2019-04-26T07:16:32.232Z,10.09
2019-04-26T07:22:18.018Z,10.20
2019-04-26T07:27:42.322Z,10.28
2019-04-26T07:33:12.712Z,10.19
2019-04-26T07:39:17.717Z,10.36
2019-04-26T07:44:33.550Z,10.39
2019-04-26T07:50:26.688Z,10.34
2019-04-26T07:55:48.290Z,10.39
2019-04-26T08:01:20.329Z,10.48
2019-04-26T08:07:06.395Z,10.63
2019-04-26T08:12:27.900Z,10.89
2019-04-26T08:17:53.886Z,11.08
2019-04-26T08:23:37.525Z,11.29
2019-04-26T08:28:38.434Z,11.49
2019-04-26T08:34:01.591Z,11.54
2019-04-26T08:39:24.582Z,11.77
2019-04-26T08:44:58.162Z,11.86
2019-04-26T08:50:28.515Z,11.71
2019-04-26T08:55:48.584Z,11.90
2019-04-26T09:01:20.183Z,11.74
2019-04-26T09:06:49.503Z,11.50
2019-04-26T09:12:23.018Z,11.37
2019-04-26T09:17:34.228Z,11.30
2019-04-26T09:23:03.754Z,11.34
2019-04-26T09:28:30.513Z,11.51
2019-04-26T09:33:53.735Z,11.62
2019-04-26T09:39:12.826Z,11.71
2019-04-26T09:44:37.574Z,11.85
2019-04-26T09:50:03.928Z,12.40
2019-04-26T09:55:34.560Z,12.54
2019-04-26T10:00:44.054Z,12.56
2019-04-26T10:06:07.990Z,12.63
2019-04-26T10:11:27.062Z,12.87
2019-04-26T10:16:50.288Z,12.19
2019-04-26T10:22:08.968Z,12.24
2019-04-26T10:27:27.652Z,12.10
2019-04-26T10:32:46.539Z,12.32
2019-04-26T10:38:05.158Z,12.43
2019-04-26T10:43:23.762Z,12.64
2019-04-26T10:48:45.440Z,12.82
2019-04-26T10:54:05.906Z,12.80
2019-04-26T10:59:32.435Z,12.69
2019-04-26T11:04:51.149Z,12.84
2019-04-26T11:10:10.316Z,12.99
2019-04-26T11:15:29.206Z,12.96
2019-04-26T11:20:49.315Z,13.24
2019-04-26T11:26:07.956Z,13.65
2019-04-26T11:31:27.702Z,14.34
2019-04-26T11:36:46.825Z,14.61
2019-04-26T11:42:07.984Z,14.57
2019-04-26T11:47:25.985Z,14.35
2019-04-26T11:52:44.611Z,14.39
2019-04-26T11:58:03.168Z,14.67
2019-04-26T12:03:24.937Z,14.36
2019-04-26T12:08:55.864Z,14.35
2019-04-26T12:14:20.406Z,14.75
2019-04-26T12:19:34.821Z,14.39
2019-04-26T12:24:53.425Z,14.37
2019-04-26T12:30:12.963Z,14.47
2019-04-26T12:35:31.586Z,14.98
2019-04-26T12:40:51.645Z,15.55
2019-04-26T12:46:15.203Z,15.93
2019-04-26T12:51:33.823Z,15.88
2019-04-26T12:56:52.479Z,16.68
2019-04-26T13:02:11.263Z,16.28
2019-04-26T13:07:29.877Z,16.16
2019-04-26T13:12:52.866Z,16.39
2019-04-26T13:18:12.073Z,15.51
2019-04-26T13:23:31.304Z,15.58
2019-04-26T13:28:52.468Z,15.76
2019-04-26T13:34:10.471Z,15.57
2019-04-26T13:39:29.069Z,15.28
2019-04-26T13:45:01.185Z,15.16
2019-04-26T13:50:28.343Z,15.20
2019-04-26T13:55:47.012Z,15.35
2019-04-26T14:01:05.999Z,15.27
2019-04-26T14:06:24.618Z,15.68
2019-04-26T14:11:43.255Z,15.77
2019-04-26T14:17:03.907Z,15.42
2019-04-26T14:22:24.091Z,15.18
2019-04-26T14:27:49.943Z,15.67
2019-04-26T14:33:07.110Z,16.46
2019-04-26T14:38:28.027Z,16.65
2019-04-26T14:43:46.137Z,17.47
2019-04-26T14:49:05.810Z,17.04
2019-04-26T14:54:24.368Z,16.83
2019-04-26T14:59:57.875Z,16.58
2019-04-26T15:05:19.541Z,16.85
2019-04-26T15:10:45.948Z,17.19
2019-04-26T15:16:04.818Z,17.02
2019-04-26T15:21:20.612Z,17.07
2019-04-26T15:26:39.294Z,16.71
2019-04-26T15:31:58.353Z,16.51
2019-04-26T15:37:20.305Z,16.50
2019-04-26T15:42:58.747Z,16.57
2019-04-26T15:48:23.221Z,16.58
2019-04-26T15:53:43.472Z,16.80
2019-04-26T15:59:02.635Z,16.97
2019-04-26T16:04:22.225Z,16.75
2019-04-26T16:09:43.571Z,16.48
2019-04-26T16:15:06.543Z,16.49
2019-04-26T16:20:24.938Z,16.51
2019-04-26T16:25:43.828Z,16.54
2019-04-26T16:31:13.881Z,16.15
2019-04-26T16:36:36.479Z,15.92
2019-04-26T16:41:53.082Z,15.85
2019-04-26T16:47:13.240Z,16.09
2019-04-26T16:52:33.706Z,16.06
2019-04-26T16:57:55.584Z,16.23
2019-04-26T17:03:12.845Z,15.90
2019-04-26T17:08:31.469Z,15.96
2019-04-26T17:13:53.458Z,15.58
2019-04-26T17:19:13.716Z,15.17
2019-04-26T17:24:34.226Z,15.10
2019-04-26T17:29:52.939Z,14.85
2019-04-26T17:35:11.580Z,14.68
2019-04-26T17:40:36.177Z,14.51
2019-04-26T17:45:51.630Z,14.44
2019-04-26T17:51:18.398Z,14.55
2019-04-26T17:56:34.760Z,14.55
2019-04-26T18:01:57.298Z,14.57
2019-04-26T18:07:36.120Z,14.48
2019-04-26T18:12:38.998Z,14.08
2019-04-26T18:17:54.522Z,13.72
2019-04-26T18:23:18.562Z,13.24
2019-04-26T18:28:35.175Z,12.99
2019-04-26T18:33:54.797Z,12.69
2019-04-26T18:39:14.035Z,12.33
2019-04-26T18:44:38.428Z,11.93
2019-04-26T18:49:58.276Z,11.54
2019-04-26T18:55:16.344Z,11.29
2019-04-26T19:00:36.771Z,11.09
2019-04-26T19:05:58.547Z,10.86
2019-04-26T19:11:16.240Z,10.62
2019-04-26T19:16:36.497Z,10.35
2019-04-26T19:22:01.532Z,10.17
2019-04-26T19:27:22.380Z,10.00
2019-04-26T19:32:41.167Z,9.76
2019-04-26T19:37:59.867Z,9.56
2019-04-26T19:43:30.318Z,9.44
2019-04-26T19:48:56.729Z,9.34
2019-04-26T19:54:35.634Z,9.18
2019-04-26T19:59:49.215Z,8.99
2019-04-26T20:05:09.741Z,8.73
2019-04-26T20:10:28.346Z,8.59
2019-04-26T20:15:46.962Z,8.62
2019-04-26T20:21:06.561Z,8.43
2019-04-26T20:26:26.027Z,8.21
2019-04-26T20:31:55.556Z,8.01
2019-04-26T20:37:16.196Z,8.00
2019-04-26T20:42:34.613Z,7.86
2019-04-26T20:47:55.670Z,7.67
2019-04-26T20:53:13.814Z,7.51
2019-04-26T20:58:32.384Z,7.47
2019-04-26T21:03:51.753Z,7.38
2019-04-26T21:09:12.123Z,7.36
2019-04-26T21:14:31.591Z,7.18
2019-04-26T21:19:54.949Z,7.15
2019-04-26T21:25:15.903Z,6.97
2019-04-26T21:30:38.557Z,6.91
2019-04-26T21:36:15.809Z,6.86
2019-04-26T21:41:36.002Z,7.01
2019-04-26T21:46:58.706Z,7.32
2019-04-26T21:52:15.265Z,7.63
2019-04-26T21:57:35.020Z,8.18
2019-04-26T22:02:53.632Z,8.23
2019-04-26T22:08:17.356Z,8.12
2019-04-26T22:13:44.855Z,8.01
2019-04-26T22:19:05.116Z,8.21
2019-04-26T22:24:31.113Z,8.56
2019-04-26T22:29:51.898Z,8.90
2019-04-26T22:35:13.387Z,8.81
2019-04-26T22:40:30.933Z,8.90
2019-04-26T22:45:53.988Z,8.79
2019-04-26T22:51:14.027Z,8.55
2019-04-26T22:56:37.011Z,8.47
2019-04-26T23:01:53.713Z,8.75
2019-04-26T23:07:13.655Z,8.96
2019-04-26T23:12:50.104Z,9.09
2019-04-26T23:18:19.581Z,9.16
2019-04-26T23:23:40.980Z,9.24
2019-04-26T23:28:58.456Z,9.27
2019-04-26T23:34:16.976Z,9.24
2019-04-26T23:39:35.452Z,9.31
2019-04-26T23:44:54.079Z,8.97
2019-04-26T23:50:14.075Z,8.87
2019-04-26T23:55:33.811Z,8.98
